sensor_id;sensor_type;location;lat;lon;timestamp;P1;durP1;ratioP1;P2;durP2;ratioP2
70367;SDS011;57789;53.868;10.728;2023-07-30T00:00:07;17.53;;;10.10;;
70367;SDS011;57789;53.868;10.728;2023-07-30T00:02:35;15.17;;;10.43;;
70367;SDS011;57789;53.868;10.728;2023-07-30T00:05:01;15.23;;;9.40;;
70367;SDS011;57789;53.868;10.728;2023-07-30T00:07:26;13.20;;;9.50;;
70367;SDS011;57789;53.868;10.728;2023-07-30T00:09:52;15.30;;;10.50;;
70367;SDS011;57789;53.868;10.728;2023-07-30T00:12:18;14.03;;;9.90;;
70367;SDS011;57789;53.868;10.728;2023-07-30T00:14:43;12.33;;;9.27;;
70367;SDS011;57789;53.868;10.728;2023-07-30T00:17:09;15.53;;;10.20;;
70367;SDS011;57789;53.868;10.728;2023-07-30T00:19:35;12.20;;;10.07;;
70367;SDS011;57789;53.868;10.728;2023-07-30T00:22:00;15.93;;;10.77;;
70367;SDS011;57789;53.868;10.728;2023-07-30T00:24:26;15.70;;;10.70;;
70367;SDS011;57789;53.868;10.728;2023-07-30T00:26:52;15.17;;;9.70;;
70367;SDS011;57789;53.868;10.728;2023-07-30T00:29:17;16.43;;;10.57;;
70367;SDS011;57789;53.868;10.728;2023-07-30T00:31:43;14.80;;;9.80;;
70367;SDS011;57789;53.868;10.728;2023-07-30T00:34:09;12.73;;;9.20;;
70367;SDS011;57789;53.868;10.728;2023-07-30T00:36:34;14.53;;;10.07;;
70367;SDS011;57789;53.868;10.728;2023-07-30T00:39:00;12.23;;;9.87;;
70367;SDS011;57789;53.868;10.728;2023-07-30T00:41:25;17.43;;;11.73;;
70367;SDS011;57789;53.868;10.728;2023-07-30T00:43:51;18.70;;;11.53;;
70367;SDS011;57789;53.868;10.728;2023-07-30T00:46:17;22.53;;;12.87;;
70367;SDS011;57789;53.868;10.728;2023-07-30T00:48:42;18.40;;;12.07;;
70367;SDS011;57789;53.868;10.728;2023-07-30T00:51:09;21.53;;;12.50;;
70367;SDS011;57789;53.868;10.728;2023-07-30T00:53:38;20.57;;;12.57;;
70367;SDS011;57789;53.868;10.728;2023-07-30T00:56:04;23.07;;;14.17;;
70367;SDS011;57789;53.868;10.728;2023-07-30T00:58:30;22.50;;;12.37;;
70367;SDS011;57789;53.868;10.728;2023-07-30T01:00:57;20.03;;;13.00;;
70367;SDS011;57789;53.868;10.728;2023-07-30T01:03:23;23.27;;;13.17;;
70367;SDS011;57789;53.868;10.728;2023-07-30T01:05:49;22.90;;;13.90;;
70367;SDS011;57789;53.868;10.728;2023-07-30T01:08:15;23.57;;;14.80;;
70367;SDS011;57789;53.868;10.728;2023-07-30T01:10:41;23.30;;;12.70;;
70367;SDS011;57789;53.868;10.728;2023-07-30T01:13:08;24.70;;;14.17;;
70367;SDS011;57789;53.868;10.728;2023-07-30T01:15:36;24.97;;;13.77;;
70367;SDS011;57789;53.868;10.728;2023-07-30T01:18:03;23.20;;;14.63;;
70367;SDS011;57789;53.868;10.728;2023-07-30T01:20:29;23.90;;;14.83;;
70367;SDS011;57789;53.868;10.728;2023-07-30T01:22:57;23.87;;;13.87;;
70367;SDS011;57789;53.868;10.728;2023-07-30T01:25:27;21.50;;;13.43;;
70367;SDS011;57789;53.868;10.728;2023-07-30T01:27:56;19.67;;;13.40;;
70367;SDS011;57789;53.868;10.728;2023-07-30T01:30:26;15.80;;;10.83;;
70367;SDS011;57789;53.868;10.728;2023-07-30T01:32:54;15.93;;;11.27;;
70367;SDS011;57789;53.868;10.728;2023-07-30T01:35:22;12.97;;;9.07;;
70367;SDS011;57789;53.868;10.728;2023-07-30T01:37:52;13.53;;;8.70;;
70367;SDS011;57789;53.868;10.728;2023-07-30T01:40:18;17.90;;;8.60;;
70367;SDS011;57789;53.868;10.728;2023-07-30T01:42:45;12.53;;;7.50;;
70367;SDS011;57789;53.868;10.728;2023-07-30T01:45:10;9.80;;;7.13;;
70367;SDS011;57789;53.868;10.728;2023-07-30T01:47:36;9.33;;;6.83;;
70367;SDS011;57789;53.868;10.728;2023-07-30T01:50:02;18.50;;;6.30;;
70367;SDS011;57789;53.868;10.728;2023-07-30T01:52:28;7.73;;;6.60;;
70367;SDS011;57789;53.868;10.728;2023-07-30T01:54:54;6.67;;;5.40;;
70367;SDS011;57789;53.868;10.728;2023-07-30T01:57:21;12.40;;;5.77;;
70367;SDS011;57789;53.868;10.728;2023-07-30T01:59:46;8.93;;;5.40;;
70367;SDS011;57789;53.868;10.728;2023-07-30T02:02:12;10.03;;;6.80;;
70367;SDS011;57789;53.868;10.728;2023-07-30T02:04:38;8.00;;;5.67;;
70367;SDS011;57789;53.868;10.728;2023-07-30T02:07:03;8.43;;;5.60;;
70367;SDS011;57789;53.868;10.728;2023-07-30T02:09:29;6.63;;;5.13;;
70367;SDS011;57789;53.868;10.728;2023-07-30T02:11:55;8.00;;;5.63;;
70367;SDS011;57789;53.868;10.728;2023-07-30T02:14:20;7.70;;;5.40;;
70367;SDS011;57789;53.868;10.728;2023-07-30T02:16:46;6.63;;;4.90;;
70367;SDS011;57789;53.868;10.728;2023-07-30T02:19:11;7.93;;;4.77;;
70367;SDS011;57789;53.868;10.728;2023-07-30T02:21:37;5.60;;;4.90;;
70367;SDS011;57789;53.868;10.728;2023-07-30T02:24:07;8.90;;;5.13;;
70367;SDS011;57789;53.868;10.728;2023-07-30T02:26:36;10.07;;;5.03;;
70367;SDS011;57789;53.868;10.728;2023-07-30T02:29:01;6.87;;;4.90;;
70367;SDS011;57789;53.868;10.728;2023-07-30T02:31:27;5.97;;;4.90;;
70367;SDS011;57789;53.868;10.728;2023-07-30T02:33:53;6.63;;;4.60;;
70367;SDS011;57789;53.868;10.728;2023-07-30T02:36:18;7.23;;;4.87;;
70367;SDS011;57789;53.868;10.728;2023-07-30T02:38:44;8.20;;;4.60;;
70367;SDS011;57789;53.868;10.728;2023-07-30T02:41:10;6.60;;;4.70;;
70367;SDS011;57789;53.868;10.728;2023-07-30T02:43:35;6.17;;;4.80;;
70367;SDS011;57789;53.868;10.728;2023-07-30T02:46:01;9.00;;;5.13;;
70367;SDS011;57789;53.868;10.728;2023-07-30T02:48:26;6.77;;;5.53;;
70367;SDS011;57789;53.868;10.728;2023-07-30T02:50:52;5.00;;;4.33;;
70367;SDS011;57789;53.868;10.728;2023-07-30T02:53:18;8.03;;;5.37;;
70367;SDS011;57789;53.868;10.728;2023-07-30T02:55:43;5.17;;;4.63;;
70367;SDS011;57789;53.868;10.728;2023-07-30T02:58:09;6.83;;;4.70;;
70367;SDS011;57789;53.868;10.728;2023-07-30T03:00:35;5.10;;;3.63;;
70367;SDS011;57789;53.868;10.728;2023-07-30T03:03:01;9.90;;;4.63;;
70367;SDS011;57789;53.868;10.728;2023-07-30T03:05:26;6.83;;;3.97;;
70367;SDS011;57789;53.868;10.728;2023-07-30T03:07:52;5.93;;;5.33;;
70367;SDS011;57789;53.868;10.728;2023-07-30T03:10:18;5.53;;;3.80;;
70367;SDS011;57789;53.868;10.728;2023-07-30T03:12:44;7.30;;;4.37;;
70367;SDS011;57789;53.868;10.728;2023-07-30T03:15:10;5.20;;;4.30;;
70367;SDS011;57789;53.868;10.728;2023-07-30T03:17:36;4.43;;;3.93;;
70367;SDS011;57789;53.868;10.728;2023-07-30T03:20:02;8.63;;;5.33;;
70367;SDS011;57789;53.868;10.728;2023-07-30T03:22:29;4.87;;;4.40;;
70367;SDS011;57789;53.868;10.728;2023-07-30T03:24:55;9.73;;;4.30;;
70367;SDS011;57789;53.868;10.728;2023-07-30T03:27:20;8.37;;;5.17;;
70367;SDS011;57789;53.868;10.728;2023-07-30T03:29:46;7.33;;;4.70;;
70367;SDS011;57789;53.868;10.728;2023-07-30T03:32:12;5.00;;;4.50;;
70367;SDS011;57789;53.868;10.728;2023-07-30T03:34:37;4.60;;;4.10;;
70367;SDS011;57789;53.868;10.728;2023-07-30T03:37:03;5.50;;;4.10;;
70367;SDS011;57789;53.868;10.728;2023-07-30T03:39:29;6.00;;;5.00;;
70367;SDS011;57789;53.868;10.728;2023-07-30T03:41:55;9.43;;;4.73;;
70367;SDS011;57789;53.868;10.728;2023-07-30T03:44:20;7.20;;;4.30;;
70367;SDS011;57789;53.868;10.728;2023-07-30T03:46:46;4.33;;;3.93;;
70367;SDS011;57789;53.868;10.728;2023-07-30T03:49:11;7.40;;;5.00;;
70367;SDS011;57789;53.868;10.728;2023-07-30T03:51:37;6.60;;;4.50;;
70367;SDS011;57789;53.868;10.728;2023-07-30T03:54:03;7.77;;;5.97;;
70367;SDS011;57789;53.868;10.728;2023-07-30T03:56:29;3.43;;;3.10;;
70367;SDS011;57789;53.868;10.728;2023-07-30T03:58:55;3.80;;;3.47;;
70367;SDS011;57789;53.868;10.728;2023-07-30T04:01:21;4.50;;;3.60;;
70367;SDS011;57789;53.868;10.728;2023-07-30T04:03:47;4.30;;;3.23;;
70367;SDS011;57789;53.868;10.728;2023-07-30T04:06:12;6.17;;;3.70;;
70367;SDS011;57789;53.868;10.728;2023-07-30T04:08:38;4.87;;;3.80;;
70367;SDS011;57789;53.868;10.728;2023-07-30T04:11:04;4.93;;;3.83;;
70367;SDS011;57789;53.868;10.728;2023-07-30T04:13:29;4.27;;;3.87;;
70367;SDS011;57789;53.868;10.728;2023-07-30T04:15:55;4.80;;;3.97;;
70367;SDS011;57789;53.868;10.728;2023-07-30T04:18:20;4.93;;;4.43;;
70367;SDS011;57789;53.868;10.728;2023-07-30T04:20:47;5.10;;;3.77;;
70367;SDS011;57789;53.868;10.728;2023-07-30T04:23:13;4.13;;;3.73;;
70367;SDS011;57789;53.868;10.728;2023-07-30T04:25:39;7.90;;;4.43;;
70367;SDS011;57789;53.868;10.728;2023-07-30T04:28:04;7.47;;;4.97;;
70367;SDS011;57789;53.868;10.728;2023-07-30T04:30:32;7.33;;;4.87;;
70367;SDS011;57789;53.868;10.728;2023-07-30T04:32:57;10.00;;;4.30;;
70367;SDS011;57789;53.868;10.728;2023-07-30T04:35:23;7.20;;;4.60;;
70367;SDS011;57789;53.868;10.728;2023-07-30T04:37:49;7.33;;;5.67;;
70367;SDS011;57789;53.868;10.728;2023-07-30T04:40:14;8.73;;;5.20;;
70367;SDS011;57789;53.868;10.728;2023-07-30T04:42:40;7.00;;;5.10;;
70367;SDS011;57789;53.868;10.728;2023-07-30T04:45:06;11.80;;;5.97;;
70367;SDS011;57789;53.868;10.728;2023-07-30T04:47:32;7.80;;;6.03;;
70367;SDS011;57789;53.868;10.728;2023-07-30T04:49:58;15.87;;;7.13;;
70367;SDS011;57789;53.868;10.728;2023-07-30T04:52:23;7.63;;;5.87;;
70367;SDS011;57789;53.868;10.728;2023-07-30T04:54:49;8.50;;;6.37;;
70367;SDS011;57789;53.868;10.728;2023-07-30T04:57:14;9.77;;;6.67;;
70367;SDS011;57789;53.868;10.728;2023-07-30T04:59:40;8.60;;;6.50;;
70367;SDS011;57789;53.868;10.728;2023-07-30T05:02:05;11.67;;;7.57;;
70367;SDS011;57789;53.868;10.728;2023-07-30T05:04:32;13.10;;;8.33;;
70367;SDS011;57789;53.868;10.728;2023-07-30T05:06:57;10.17;;;7.73;;
70367;SDS011;57789;53.868;10.728;2023-07-30T05:09:23;14.20;;;8.00;;
70367;SDS011;57789;53.868;10.728;2023-07-30T05:11:49;9.03;;;7.57;;
70367;SDS011;57789;53.868;10.728;2023-07-30T05:14:14;15.20;;;8.33;;
70367;SDS011;57789;53.868;10.728;2023-07-30T05:16:40;14.57;;;7.30;;
70367;SDS011;57789;53.868;10.728;2023-07-30T05:19:06;8.37;;;6.90;;
70367;SDS011;57789;53.868;10.728;2023-07-30T05:21:31;9.33;;;7.27;;
70367;SDS011;57789;53.868;10.728;2023-07-30T05:23:58;10.73;;;8.00;;
70367;SDS011;57789;53.868;10.728;2023-07-30T05:26:24;10.30;;;8.70;;
70367;SDS011;57789;53.868;10.728;2023-07-30T05:28:49;13.67;;;8.10;;
70367;SDS011;57789;53.868;10.728;2023-07-30T05:31:15;12.63;;;8.93;;
70367;SDS011;57789;53.868;10.728;2023-07-30T05:33:40;11.83;;;9.47;;
70367;SDS011;57789;53.868;10.728;2023-07-30T05:36:06;11.93;;;8.70;;
70367;SDS011;57789;53.868;10.728;2023-07-30T05:38:33;15.13;;;9.03;;
70367;SDS011;57789;53.868;10.728;2023-07-30T05:40:58;11.30;;;9.13;;
70367;SDS011;57789;53.868;10.728;2023-07-30T05:43:24;15.33;;;9.20;;
70367;SDS011;57789;53.868;10.728;2023-07-30T05:45:49;12.47;;;8.80;;
70367;SDS011;57789;53.868;10.728;2023-07-30T05:48:15;9.93;;;8.70;;
70367;SDS011;57789;53.868;10.728;2023-07-30T05:50:41;14.73;;;10.17;;
70367;SDS011;57789;53.868;10.728;2023-07-30T05:53:06;15.63;;;9.53;;
70367;SDS011;57789;53.868;10.728;2023-07-30T05:55:32;16.57;;;9.10;;
70367;SDS011;57789;53.868;10.728;2023-07-30T05:57:57;11.57;;;8.10;;
70367;SDS011;57789;53.868;10.728;2023-07-30T06:00:23;9.80;;;7.60;;
70367;SDS011;57789;53.868;10.728;2023-07-30T06:02:49;12.90;;;7.70;;
70367;SDS011;57789;53.868;10.728;2023-07-30T06:05:15;9.93;;;7.70;;
70367;SDS011;57789;53.868;10.728;2023-07-30T06:07:40;10.40;;;6.83;;
70367;SDS011;57789;53.868;10.728;2023-07-30T06:10:06;10.23;;;6.33;;
70367;SDS011;57789;53.868;10.728;2023-07-30T06:12:32;9.40;;;6.80;;
70367;SDS011;57789;53.868;10.728;2023-07-30T06:14:58;11.40;;;6.40;;
70367;SDS011;57789;53.868;10.728;2023-07-30T06:17:23;14.87;;;6.90;;
70367;SDS011;57789;53.868;10.728;2023-07-30T06:19:49;12.33;;;7.00;;
70367;SDS011;57789;53.868;10.728;2023-07-30T06:22:14;11.63;;;6.53;;
70367;SDS011;57789;53.868;10.728;2023-07-30T06:24:40;10.67;;;6.80;;
70367;SDS011;57789;53.868;10.728;2023-07-30T06:27:06;11.77;;;7.00;;
70367;SDS011;57789;53.868;10.728;2023-07-30T06:29:31;12.20;;;6.63;;
70367;SDS011;57789;53.868;10.728;2023-07-30T06:31:57;12.17;;;7.83;;
70367;SDS011;57789;53.868;10.728;2023-07-30T06:34:23;10.53;;;6.40;;
70367;SDS011;57789;53.868;10.728;2023-07-30T06:36:48;14.27;;;7.00;;
70367;SDS011;57789;53.868;10.728;2023-07-30T06:39:14;13.53;;;6.60;;
70367;SDS011;57789;53.868;10.728;2023-07-30T06:41:40;29.97;;;6.20;;
70367;SDS011;57789;53.868;10.728;2023-07-30T06:44:05;14.20;;;6.33;;
70367;SDS011;57789;53.868;10.728;2023-07-30T06:46:31;13.73;;;6.10;;
70367;SDS011;57789;53.868;10.728;2023-07-30T06:48:56;17.50;;;5.60;;
70367;SDS011;57789;53.868;10.728;2023-07-30T06:51:23;12.47;;;5.47;;
70367;SDS011;57789;53.868;10.728;2023-07-30T06:53:50;19.77;;;7.40;;
70367;SDS011;57789;53.868;10.728;2023-07-30T06:56:16;10.33;;;5.00;;
70367;SDS011;57789;53.868;10.728;2023-07-30T06:58:42;15.27;;;5.33;;
70367;SDS011;57789;53.868;10.728;2023-07-30T07:01:08;16.33;;;5.43;;
70367;SDS011;57789;53.868;10.728;2023-07-30T07:03:33;10.63;;;4.77;;
70367;SDS011;57789;53.868;10.728;2023-07-30T07:05:59;16.37;;;5.13;;
70367;SDS011;57789;53.868;10.728;2023-07-30T07:08:24;11.43;;;4.63;;
70367;SDS011;57789;53.868;10.728;2023-07-30T07:10:52;13.60;;;5.00;;
70367;SDS011;57789;53.868;10.728;2023-07-30T07:13:17;17.17;;;4.67;;
70367;SDS011;57789;53.868;10.728;2023-07-30T07:15:43;13.00;;;4.93;;
70367;SDS011;57789;53.868;10.728;2023-07-30T07:18:09;13.07;;;5.77;;
70367;SDS011;57789;53.868;10.728;2023-07-30T07:20:36;9.50;;;4.33;;
70367;SDS011;57789;53.868;10.728;2023-07-30T07:23:02;15.07;;;4.47;;
70367;SDS011;57789;53.868;10.728;2023-07-30T07:25:28;17.17;;;3.73;;
70367;SDS011;57789;53.868;10.728;2023-07-30T07:27:54;8.27;;;3.33;;
70367;SDS011;57789;53.868;10.728;2023-07-30T07:30:19;13.23;;;3.97;;
70367;SDS011;57789;53.868;10.728;2023-07-30T07:32:45;11.50;;;3.57;;
70367;SDS011;57789;53.868;10.728;2023-07-30T07:35:15;11.57;;;3.90;;
70367;SDS011;57789;53.868;10.728;2023-07-30T07:37:41;10.60;;;3.10;;
70367;SDS011;57789;53.868;10.728;2023-07-30T07:40:07;24.90;;;4.93;;
70367;SDS011;57789;53.868;10.728;2023-07-30T07:42:34;10.63;;;4.00;;
70367;SDS011;57789;53.868;10.728;2023-07-30T07:45:00;9.13;;;3.80;;
70367;SDS011;57789;53.868;10.728;2023-07-30T07:47:26;9.33;;;3.33;;
70367;SDS011;57789;53.868;10.728;2023-07-30T07:49:52;10.87;;;3.47;;
70367;SDS011;57789;53.868;10.728;2023-07-30T07:52:17;16.20;;;4.10;;
70367;SDS011;57789;53.868;10.728;2023-07-30T07:54:44;9.10;;;3.60;;
70367;SDS011;57789;53.868;10.728;2023-07-30T07:57:10;10.70;;;3.23;;
70367;SDS011;57789;53.868;10.728;2023-07-30T07:59:36;10.20;;;3.70;;
70367;SDS011;57789;53.868;10.728;2023-07-30T08:02:01;7.20;;;3.60;;
70367;SDS011;57789;53.868;10.728;2023-07-30T08:04:27;11.87;;;3.60;;
70367;SDS011;57789;53.868;10.728;2023-07-30T08:06:53;12.23;;;3.73;;
70367;SDS011;57789;53.868;10.728;2023-07-30T08:09:19;8.00;;;3.50;;
70367;SDS011;57789;53.868;10.728;2023-07-30T08:11:44;7.97;;;3.57;;
70367;SDS011;57789;53.868;10.728;2023-07-30T08:14:10;7.87;;;2.63;;
70367;SDS011;57789;53.868;10.728;2023-07-30T08:16:35;11.00;;;3.10;;
70367;SDS011;57789;53.868;10.728;2023-07-30T08:19:01;5.17;;;2.40;;
70367;SDS011;57789;53.868;10.728;2023-07-30T08:21:27;14.40;;;3.47;;
70367;SDS011;57789;53.868;10.728;2023-07-30T08:23:52;10.07;;;3.50;;
70367;SDS011;57789;53.868;10.728;2023-07-30T08:26:18;10.20;;;4.20;;
70367;SDS011;57789;53.868;10.728;2023-07-30T08:28:44;11.47;;;3.83;;
70367;SDS011;57789;53.868;10.728;2023-07-30T08:31:09;14.53;;;3.70;;
70367;SDS011;57789;53.868;10.728;2023-07-30T08:33:35;12.90;;;3.07;;
70367;SDS011;57789;53.868;10.728;2023-07-30T08:36:01;10.50;;;3.73;;
70367;SDS011;57789;53.868;10.728;2023-07-30T08:38:27;8.63;;;2.77;;
70367;SDS011;57789;53.868;10.728;2023-07-30T08:40:53;8.87;;;2.97;;
70367;SDS011;57789;53.868;10.728;2023-07-30T08:43:19;14.80;;;3.70;;
70367;SDS011;57789;53.868;10.728;2023-07-30T08:45:45;7.77;;;2.77;;
70367;SDS011;57789;53.868;10.728;2023-07-30T08:48:10;7.17;;;2.60;;
70367;SDS011;57789;53.868;10.728;2023-07-30T08:50:36;9.47;;;2.90;;
70367;SDS011;57789;53.868;10.728;2023-07-30T08:53:02;9.43;;;2.70;;
70367;SDS011;57789;53.868;10.728;2023-07-30T08:55:28;8.83;;;2.50;;
70367;SDS011;57789;53.868;10.728;2023-07-30T08:57:57;10.00;;;3.53;;
70367;SDS011;57789;53.868;10.728;2023-07-30T09:00:26;12.57;;;4.17;;
70367;SDS011;57789;53.868;10.728;2023-07-30T09:02:56;6.10;;;3.17;;
70367;SDS011;57789;53.868;10.728;2023-07-30T09:05:25;9.10;;;3.10;;
70367;SDS011;57789;53.868;10.728;2023-07-30T09:07:54;11.77;;;4.00;;
70367;SDS011;57789;53.868;10.728;2023-07-30T09:10:21;14.07;;;3.80;;
70367;SDS011;57789;53.868;10.728;2023-07-30T09:12:51;5.07;;;2.73;;
70367;SDS011;57789;53.868;10.728;2023-07-30T09:15:19;10.93;;;3.87;;
70367;SDS011;57789;53.868;10.728;2023-07-30T09:17:54;9.20;;;3.27;;
70367;SDS011;57789;53.868;10.728;2023-07-30T09:20:20;7.70;;;3.63;;
70367;SDS011;57789;53.868;10.728;2023-07-30T09:22:46;11.20;;;3.43;;
70367;SDS011;57789;53.868;10.728;2023-07-30T09:25:13;9.83;;;3.67;;
70367;SDS011;57789;53.868;10.728;2023-07-30T09:27:44;12.83;;;4.23;;
70367;SDS011;57789;53.868;10.728;2023-07-30T09:30:14;12.40;;;4.70;;
70367;SDS011;57789;53.868;10.728;2023-07-30T09:32:39;10.07;;;3.37;;
70367;SDS011;57789;53.868;10.728;2023-07-30T09:35:06;11.20;;;3.23;;
70367;SDS011;57789;53.868;10.728;2023-07-30T09:37:33;16.90;;;4.40;;
70367;SDS011;57789;53.868;10.728;2023-07-30T09:40:03;12.67;;;4.40;;
70367;SDS011;57789;53.868;10.728;2023-07-30T09:42:30;12.73;;;3.10;;
70367;SDS011;57789;53.868;10.728;2023-07-30T09:44:59;9.73;;;3.03;;
70367;SDS011;57789;53.868;10.728;2023-07-30T09:47:30;8.67;;;3.20;;
70367;SDS011;57789;53.868;10.728;2023-07-30T09:49:56;12.43;;;4.40;;
70367;SDS011;57789;53.868;10.728;2023-07-30T09:52:21;10.00;;;3.43;;
70367;SDS011;57789;53.868;10.728;2023-07-30T09:54:48;6.73;;;2.73;;
70367;SDS011;57789;53.868;10.728;2023-07-30T09:57:15;6.20;;;3.10;;
70367;SDS011;57789;53.868;10.728;2023-07-30T09:59:40;8.10;;;4.63;;
70367;SDS011;57789;53.868;10.728;2023-07-30T10:02:06;8.23;;;3.00;;
70367;SDS011;57789;53.868;10.728;2023-07-30T10:04:35;8.93;;;3.50;;
70367;SDS011;57789;53.868;10.728;2023-07-30T10:07:08;9.67;;;3.33;;
70367;SDS011;57789;53.868;10.728;2023-07-30T10:09:42;14.33;;;5.17;;
70367;SDS011;57789;53.868;10.728;2023-07-30T10:12:15;9.40;;;4.00;;
70367;SDS011;57789;53.868;10.728;2023-07-30T10:14:43;13.53;;;4.17;;
70367;SDS011;57789;53.868;10.728;2023-07-30T10:17:10;11.33;;;5.90;;
70367;SDS011;57789;53.868;10.728;2023-07-30T10:19:36;15.90;;;3.40;;
70367;SDS011;57789;53.868;10.728;2023-07-30T10:25:04;15.13;;;4.03;;
70367;SDS011;57789;53.868;10.728;2023-07-30T10:27:36;14.40;;;4.00;;
70367;SDS011;57789;53.868;10.728;2023-07-30T10:30:10;8.43;;;2.90;;
70367;SDS011;57789;53.868;10.728;2023-07-30T10:38:19;8.83;;;2.80;;
70367;SDS011;57789;53.868;10.728;2023-07-30T10:41:01;11.60;;;4.03;;
70367;SDS011;57789;53.868;10.728;2023-07-30T10:43:40;12.60;;;3.10;;
70367;SDS011;57789;53.868;10.728;2023-07-30T10:46:12;13.13;;;3.00;;
70367;SDS011;57789;53.868;10.728;2023-07-30T10:48:39;11.37;;;2.50;;
70367;SDS011;57789;53.868;10.728;2023-07-30T10:51:11;8.63;;;2.27;;
70367;SDS011;57789;53.868;10.728;2023-07-30T10:53:38;10.03;;;2.47;;
70367;SDS011;57789;53.868;10.728;2023-07-30T10:56:07;10.63;;;3.03;;
70367;SDS011;57789;53.868;10.728;2023-07-30T10:58:35;17.13;;;3.20;;
70367;SDS011;57789;53.868;10.728;2023-07-30T11:01:02;14.83;;;2.90;;
70367;SDS011;57789;53.868;10.728;2023-07-30T11:03:28;6.87;;;2.23;;
70367;SDS011;57789;53.868;10.728;2023-07-30T11:05:55;7.53;;;2.83;;
70367;SDS011;57789;53.868;10.728;2023-07-30T11:11:00;7.30;;;2.30;;
70367;SDS011;57789;53.868;10.728;2023-07-30T11:13:26;11.50;;;3.00;;
70367;SDS011;57789;53.868;10.728;2023-07-30T11:15:52;11.10;;;2.43;;
70367;SDS011;57789;53.868;10.728;2023-07-30T11:18:17;9.97;;;2.67;;
70367;SDS011;57789;53.868;10.728;2023-07-30T11:20:43;15.73;;;4.50;;
70367;SDS011;57789;53.868;10.728;2023-07-30T11:23:21;7.90;;;2.10;;
70367;SDS011;57789;53.868;10.728;2023-07-30T11:25:48;6.03;;;1.73;;
70367;SDS011;57789;53.868;10.728;2023-07-30T11:28:15;15.40;;;3.07;;
70367;SDS011;57789;53.868;10.728;2023-07-30T11:31:02;5.70;;;2.13;;
70367;SDS011;57789;53.868;10.728;2023-07-30T11:33:33;8.07;;;2.70;;
70367;SDS011;57789;53.868;10.728;2023-07-30T11:36:11;7.87;;;2.97;;
70367;SDS011;57789;53.868;10.728;2023-07-30T11:38:39;7.17;;;2.83;;
70367;SDS011;57789;53.868;10.728;2023-07-30T11:41:06;6.87;;;2.40;;
70367;SDS011;57789;53.868;10.728;2023-07-30T11:43:35;14.03;;;2.70;;
70367;SDS011;57789;53.868;10.728;2023-07-30T11:46:16;10.80;;;2.70;;
70367;SDS011;57789;53.868;10.728;2023-07-30T11:48:47;8.80;;;2.67;;
70367;SDS011;57789;53.868;10.728;2023-07-30T11:51:27;8.77;;;2.60;;
70367;SDS011;57789;53.868;10.728;2023-07-30T11:53:57;8.17;;;3.30;;
70367;SDS011;57789;53.868;10.728;2023-07-30T11:56:28;8.07;;;3.10;;
70367;SDS011;57789;53.868;10.728;2023-07-30T11:58:59;12.90;;;2.53;;
70367;SDS011;57789;53.868;10.728;2023-07-30T12:01:32;7.90;;;2.23;;
70367;SDS011;57789;53.868;10.728;2023-07-30T12:04:03;11.90;;;2.70;;
70367;SDS011;57789;53.868;10.728;2023-07-30T12:11:47;4.93;;;2.00;;
70367;SDS011;57789;53.868;10.728;2023-07-30T12:14:18;11.80;;;2.67;;
70367;SDS011;57789;53.868;10.728;2023-07-30T12:16:45;12.13;;;2.70;;
70367;SDS011;57789;53.868;10.728;2023-07-30T12:19:11;8.07;;;2.40;;
70367;SDS011;57789;53.868;10.728;2023-07-30T12:21:36;12.20;;;3.10;;
70367;SDS011;57789;53.868;10.728;2023-07-30T12:24:02;7.20;;;2.70;;
70367;SDS011;57789;53.868;10.728;2023-07-30T12:26:28;10.40;;;3.07;;
70367;SDS011;57789;53.868;10.728;2023-07-30T12:28:54;10.33;;;2.70;;
70367;SDS011;57789;53.868;10.728;2023-07-30T12:31:20;6.37;;;2.70;;
70367;SDS011;57789;53.868;10.728;2023-07-30T12:33:46;7.97;;;2.10;;
70367;SDS011;57789;53.868;10.728;2023-07-30T12:36:11;4.70;;;1.80;;
70367;SDS011;57789;53.868;10.728;2023-07-30T12:38:37;8.13;;;1.70;;
70367;SDS011;57789;53.868;10.728;2023-07-30T12:41:02;8.30;;;2.20;;
70367;SDS011;57789;53.868;10.728;2023-07-30T12:43:28;5.70;;;1.50;;
70367;SDS011;57789;53.868;10.728;2023-07-30T12:45:54;5.27;;;1.43;;
70367;SDS011;57789;53.868;10.728;2023-07-30T12:48:19;7.47;;;1.60;;
70367;SDS011;57789;53.868;10.728;2023-07-30T12:50:45;3.93;;;1.30;;
70367;SDS011;57789;53.868;10.728;2023-07-30T12:53:11;5.77;;;1.40;;
70367;SDS011;57789;53.868;10.728;2023-07-30T12:55:36;11.20;;;1.73;;
70367;SDS011;57789;53.868;10.728;2023-07-30T12:58:03;5.07;;;1.20;;
70367;SDS011;57789;53.868;10.728;2023-07-30T13:00:29;6.73;;;1.53;;
70367;SDS011;57789;53.868;10.728;2023-07-30T13:02:55;3.63;;;1.53;;
70367;SDS011;57789;53.868;10.728;2023-07-30T13:05:22;16.33;;;2.53;;
70367;SDS011;57789;53.868;10.728;2023-07-30T13:07:48;10.73;;;1.87;;
70367;SDS011;57789;53.868;10.728;2023-07-30T13:10:14;2.73;;;1.40;;
70367;SDS011;57789;53.868;10.728;2023-07-30T13:12:40;3.97;;;1.60;;
70367;SDS011;57789;53.868;10.728;2023-07-30T13:15:05;8.20;;;1.13;;
70367;SDS011;57789;53.868;10.728;2023-07-30T13:17:32;3.93;;;1.20;;
70367;SDS011;57789;53.868;10.728;2023-07-30T13:19:58;4.20;;;1.57;;
70367;SDS011;57789;53.868;10.728;2023-07-30T13:22:24;3.10;;;1.30;;
70367;SDS011;57789;53.868;10.728;2023-07-30T13:24:50;5.50;;;1.50;;
70367;SDS011;57789;53.868;10.728;2023-07-30T13:27:16;3.23;;;1.23;;
70367;SDS011;57789;53.868;10.728;2023-07-30T13:29:42;4.87;;;1.60;;
70367;SDS011;57789;53.868;10.728;2023-07-30T13:32:07;7.27;;;2.17;;
70367;SDS011;57789;53.868;10.728;2023-07-30T13:34:34;2.97;;;1.27;;
70367;SDS011;57789;53.868;10.728;2023-07-30T13:36:59;4.77;;;1.30;;
70367;SDS011;57789;53.868;10.728;2023-07-30T13:39:25;6.10;;;1.30;;
70367;SDS011;57789;53.868;10.728;2023-07-30T13:41:51;8.00;;;1.60;;
70367;SDS011;57789;53.868;10.728;2023-07-30T13:44:16;5.33;;;1.63;;
70367;SDS011;57789;53.868;10.728;2023-07-30T13:46:42;4.57;;;1.60;;
70367;SDS011;57789;53.868;10.728;2023-07-30T13:49:07;8.13;;;2.10;;
70367;SDS011;57789;53.868;10.728;2023-07-30T13:51:33;9.43;;;1.87;;
70367;SDS011;57789;53.868;10.728;2023-07-30T13:53:59;5.30;;;1.77;;
70367;SDS011;57789;53.868;10.728;2023-07-30T13:56:26;7.70;;;1.60;;
70367;SDS011;57789;53.868;10.728;2023-07-30T13:58:52;5.90;;;1.57;;
70367;SDS011;57789;53.868;10.728;2023-07-30T14:01:17;10.03;;;4.97;;
70367;SDS011;57789;53.868;10.728;2023-07-30T14:03:43;4.50;;;1.40;;
70367;SDS011;57789;53.868;10.728;2023-07-30T14:06:09;6.73;;;1.60;;
70367;SDS011;57789;53.868;10.728;2023-07-30T14:08:35;8.53;;;2.20;;
70367;SDS011;57789;53.868;10.728;2023-07-30T14:11:01;10.40;;;2.60;;
70367;SDS011;57789;53.868;10.728;2023-07-30T14:13:27;12.73;;;3.07;;
70367;SDS011;57789;53.868;10.728;2023-07-30T14:15:52;12.77;;;4.20;;
70367;SDS011;57789;53.868;10.728;2023-07-30T14:18:19;19.73;;;5.03;;
70367;SDS011;57789;53.868;10.728;2023-07-30T14:20:44;9.87;;;4.60;;
70367;SDS011;57789;53.868;10.728;2023-07-30T14:23:10;5.17;;;3.00;;
70367;SDS011;57789;53.868;10.728;2023-07-30T14:25:36;4.83;;;2.70;;
70367;SDS011;57789;53.868;10.728;2023-07-30T14:28:02;6.10;;;2.53;;
70367;SDS011;57789;53.868;10.728;2023-07-30T14:30:29;7.30;;;2.70;;
70367;SDS011;57789;53.868;10.728;2023-07-30T14:32:54;5.97;;;2.27;;
70367;SDS011;57789;53.868;10.728;2023-07-30T14:35:20;11.00;;;2.20;;
70367;SDS011;57789;53.868;10.728;2023-07-30T14:37:46;4.63;;;2.10;;